Airfield :







YOU CAN JOIN US ON...

 
LOGIN :

Register | Disclaimer

   EN    FR    IT 

 









Legend :    VFR   Marginal VFR   IFR   Intensive IFR   Very Intensive IFR
Visi :
Ceiling :
>= 8 km
>= 3000ft
5 to 8 km
1000 to 3000 ft
1500m to 5 km
500 to 1000 ft
800 to 1500m
200 to 500 ft
< 800m
< 200 ft
Symbols :   Thunderstorms  Fog  Heavy snow  Heavy precipitations  Wind > 20 kt






- Airport Elevation : 160 ft
- IATA code : YYG


CYYG - Charlottetown

CURRENT METAR :
  • 280825Z 21016G23KT 15SM FEW005 BKN015 01/M01 A2926 RMK SF2SC5 SLP913

EXPIRED METARs :
  • 280800Z 22013G19KT 15SM -SN BKN008 01/M01 A2926 RMK SF7 SLP911
  • 280700Z 22011G19KT 12SM -SN BKN010 01/M00 A2925 RMK SF7 SLP908
  • 280600Z 19010KT 12SM -SN OVC012 01/00 A2924 RMK SF8 SLP905

TAF TAF CYYG
Valid from the 28 at 06:00 until the 28 at 18:00 UTC


280538Z 2806/2818 16010KT P6SM OVC012
TEMPO 2806/2809 4SM -SN BR OVC008
BECMG 2807/2809 21015G25KT
FM280900 21015G25KT P6SM OVC012
TEMPO 2809/2814 OVC025
BECMG 2809/2811 23020G30KT
FM281400 24015G30KT P6SM BKN040 RMK NXT FCST BY 281200Z



MET'MAP, your aeronautical weather chart ! - Copyright ORBIFLY December 2007 - Disclaimer

ORBIFLY MET'MAP TEAM :

Programming & Development : Alexandra Zaïnal
Concept & original design : Baudouin d'Aumeries
Assistance for programming : Marc-Olivier Méhu
Technical & hardware support : Manuel Goepfert

Contact : metmap@orbifly.com




SOURCES & CREDITS :

   NOAA